MUHG/HOG METAR and TAF weather

Enter ICAO airport designator
Station Type Date Time Source
MUHG METAR 2022/01/26 18:50 UTC NOAA

MUHG 261850Z 06006KT 360V130 9999 FEW030 31/17 Q1015


Station Type Date Time Source
MUHG Decoded METAR 2022/01/26 18:50 UTC NOAA

Holguin Civ / Mil , Cuba (MUHG) 20-47N 076-19W
Jan 26, 2022 - 01:50 PM EST / 2022.01.26 1850 UTC
Wind: from the ENE (060 degrees) at 7 MPH (6 KT) (direction variable):0
Visibility: greater than 7 mile(s):0
Sky conditions: mostly clear
Temperature: 87 F (31 C)
Dew Point: 62 F (17 C)
Relative Humidity: 43%
Pressure (altimeter): 29.97 in. Hg (1015 hPa)
ob: MUHG 261850Z 06006KT 360V130 9999 FEW030 31/17 Q1015
cycle: 19

Station Type Date Time Source
MUHG TAF 2022/01/26 18:06 UTC NOAA

TAF MUHG 261700Z 2618/2718 09008KT 9000 SCT020
BECMG 2701/2703 VRB03KT

Example: see airport list